Time;durP1;ratioP1;P1;durP2;ratioP2;P2;SDS_P1;SDS_P2;PMS_P1;PMS_P2;Temp;Humidity;BMP_temperature;BMP_pressure;BME280_temperature;BME280_humidity;BME280_pressure;Samples;Min_cycle;Max_cycle;Signal;HPM_P1;HPM_P2
2021/11/16 00:02:31;;;;;;;24.80;7.75;;;6.20;99.90;;;;;;20772882;28;20105;-45
2021/11/16 00:12:31;;;;;;;25.50;7.38;;;6.10;99.90;;;;;;20778595;28;20040;-44
2021/11/16 00:22:33;;;;;;;20.05;6.68;;;6.20;99.90;;;;;;20790965;28;20127;-45
2021/11/16 00:32:34;;;;;;;23.15;7.32;;;6.30;99.90;;;;;;20775152;28;20065;-45
2021/11/16 00:42:35;;;;;;;22.92;6.35;;;6.20;99.90;;;;;;20795226;28;20037;-45
2021/11/16 00:52:36;;;;;;;21.92;7.45;;;6.20;99.90;;;;;;20826712;28;20060;-45
2021/11/16 01:02:37;;;;;;;22.63;6.80;;;6.30;99.90;;;;;;20803100;28;20037;-45
2021/11/16 01:12:38;;;;;;;24.48;8.00;;;6.20;99.90;;;;;;20791487;28;20037;-45
2021/11/16 01:22:40;;;;;;;24.35;6.80;;;6.20;99.90;;;;;;20797912;28;20053;-44
2021/11/16 01:32:45;;;;;;;18.60;6.72;;;6.10;99.90;;;;;;20777239;28;20134;-44
2021/11/16 01:42:49;;;;;;;21.70;5.80;;;6.10;99.90;;;;;;20781984;28;20041;-44
2021/11/16 01:52:51;;;;;;;17.85;7.25;;;6.10;99.90;;;;;;20789915;28;20527;-44
2021/11/16 02:02:52;;;;;;;16.30;5.95;;;6.10;99.90;;;;;;20791431;28;20036;-44
2021/11/16 02:12:53;;;;;;;19.75;7.55;;;6.00;99.90;;;;;;20795199;28;20029;-45
2021/11/16 02:22:54;;;;;;;22.47;8.17;;;6.10;99.90;;;;;;20796872;28;20052;-45
2021/11/16 02:32:55;;;;;;;26.63;8.48;;;6.10;99.90;;;;;;20813047;28;20049;-45
2021/11/16 02:42:55;;;;;;;21.48;6.70;;;6.10;99.90;;;;;;20771474;28;20705;-45
2021/11/16 02:52:56;;;;;;;22.83;8.20;;;6.10;99.90;;;;;;20767098;28;20083;-45
2021/11/16 03:02:58;;;;;;;17.95;5.70;;;6.20;99.90;;;;;;20791204;28;20049;-45
2021/11/16 03:12:59;;;;;;;23.35;7.20;;;6.00;99.90;;;;;;20781560;28;20040;-45
2021/11/16 03:23:22;;;;;;;20.50;7.95;;;6.00;99.90;;;;;;20793915;28;20907;-44
2021/11/16 03:33:24;;;;;;;26.60;7.00;;;6.00;99.90;;;;;;20778504;28;20059;-45
2021/11/16 03:43:25;;;;;;;20.25;6.30;;;6.00;99.90;;;;;;20778086;28;20045;-45
2021/11/16 03:53:26;;;;;;;16.85;5.40;;;6.00;99.90;;;;;;20789402;28;21018;-45
2021/11/16 04:03:30;;;;;;;18.98;6.63;;;6.00;99.90;;;;;;20782133;28;20032;-45
2021/11/16 04:13:31;;;;;;;19.50;7.68;;;6.00;99.90;;;;;;20774104;28;20037;-44
2021/11/16 04:23:32;;;;;;;19.38;6.38;;;5.90;99.90;;;;;;20777445;28;20506;-44
2021/11/16 04:33:33;;;;;;;16.42;6.50;;;6.00;99.90;;;;;;20779263;28;20038;-45
2021/11/16 04:43:34;;;;;;;26.98;8.07;;;6.00;99.90;;;;;;20795977;28;20092;-44
2021/11/16 04:53:59;;;;;;;22.77;6.88;;;6.00;99.90;;;;;;20786080;28;20120;-44
2021/11/16 05:03:58;;;;;;;16.60;5.90;;;6.00;99.90;;;;;;20777773;28;20140;-45
2021/11/16 05:13:59;;;;;;;23.83;8.05;;;6.00;99.90;;;;;;20760814;28;20038;-44
2021/11/16 05:24:01;;;;;;;20.90;6.13;;;6.00;99.90;;;;;;20786492;28;20515;-44
2021/11/16 05:34:02;;;;;;;21.25;6.13;;;6.00;99.90;;;;;;20790295;28;20317;-45
2021/11/16 05:44:03;;;;;;;16.20;5.43;;;5.90;99.90;;;;;;20813054;28;20056;-45
2021/11/16 05:54:05;;;;;;;23.55;7.47;;;5.90;99.90;;;;;;20804487;28;20037;-45
2021/11/16 06:04:07;;;;;;;17.50;6.93;;;5.80;99.90;;;;;;20795966;28;20051;-45
2021/11/16 06:14:07;;;;;;;23.50;7.93;;;5.80;99.90;;;;;;20795301;28;20046;-45
2021/11/16 06:24:08;;;;;;;26.65;7.45;;;5.80;99.90;;;;;;20791425;28;20042;-45
2021/11/16 06:34:09;;;;;;;22.85;6.97;;;5.90;99.90;;;;;;20804807;28;20641;-45
2021/11/16 06:44:12;;;;;;;23.40;7.47;;;6.00;99.90;;;;;;20791081;28;20049;-45
2021/11/16 06:54:17;;;;;;;20.42;7.45;;;6.00;99.90;;;;;;20794145;28;20386;-45
2021/11/16 07:04:17;;;;;;;18.08;6.80;;;6.10;99.90;;;;;;20795463;28;20241;-45
2021/11/16 07:14:24;;;;;;;25.25;9.45;;;6.00;99.90;;;;;;20780909;28;20057;-45
2021/11/16 07:24:27;;;;;;;18.93;6.40;;;6.00;99.90;;;;;;20786790;28;20052;-46
2021/11/16 07:34:32;;;;;;;23.08;8.52;;;5.90;99.90;;;;;;20730046;28;20097;-44
2021/11/16 07:44:36;;;;;;;18.48;7.07;;;6.00;99.90;;;;;;20728153;28;20318;-44
2021/11/16 07:54:36;;;;;;;19.38;6.45;;;6.00;99.90;;;;;;20728494;28;20042;-45
2021/11/16 08:14:38;;;;;;;20.40;6.57;;;6.00;99.90;;;;;;20741605;28;20383;-44
2021/11/16 08:24:46;;;;;;;15.80;5.70;;;5.90;99.90;;;;;;20733302;28;20584;-44
2021/11/16 08:34:57;;;;;;;23.40;7.05;;;5.80;99.90;;;;;;20734784;28;20048;-44
2021/11/16 08:45:09;;;;;;;23.83;8.02;;;5.80;99.90;;;;;;20710593;28;20048;-44
2021/11/16 08:55:18;;;;;;;21.88;6.55;;;5.90;99.90;;;;;;20672927;28;20429;-44
2021/11/16 09:05:19;;;;;;;24.60;7.78;;;6.00;99.90;;;;;;20634305;28;20414;-45
2021/11/16 09:15:42;;;;;;;27.63;7.50;;;5.90;99.90;;;;;;20664756;28;20056;-44
2021/11/16 09:25:43;;;;;;;25.52;6.95;;;5.90;99.90;;;;;;20670572;28;20049;-44
2021/11/16 09:35:48;;;;;;;28.47;7.87;;;5.90;99.90;;;;;;20652941;28;20087;-45
2021/11/16 09:45:50;;;;;;;22.55;6.93;;;5.90;99.90;;;;;;20641055;28;20427;-44
2021/11/16 09:55:50;;;;;;;26.67;8.70;;;5.90;99.90;;;;;;20665735;28;20129;-44
2021/11/16 10:05:58;;;;;;;25.67;7.60;;;6.00;99.90;;;;;;20667493;28;20052;-44
2021/11/16 10:16:02;;;;;;;18.77;5.55;;;5.90;99.90;;;;;;20672027;28;20049;-45
2021/11/16 10:26:05;;;;;;;24.58;6.82;;;6.00;99.90;;;;;;20657846;28;20513;-44
2021/11/16 10:36:14;;;;;;;24.45;7.70;;;6.00;99.90;;;;;;20667310;28;20053;-44
2021/11/16 10:46:19;;;;;;;26.92;7.43;;;5.90;99.90;;;;;;20655986;28;20073;-44
2021/11/16 10:56:23;;;;;;;30.50;7.40;;;5.80;99.90;;;;;;20668440;28;20088;-44
2021/11/16 11:06:33;;;;;;;24.13;8.60;;;5.90;99.90;;;;;;20692496;28;20103;-44
2021/11/16 11:16:56;;;;;;;30.05;9.38;;;5.90;99.90;;;;;;20702007;28;20095;-44
2021/11/16 11:27:08;;;;;;;25.02;7.05;;;5.70;99.90;;;;;;20680319;28;20051;-44
2021/11/16 11:37:19;;;;;;;21.70;6.55;;;5.70;99.90;;;;;;20679419;28;20522;-44
2021/11/16 11:47:30;;;;;;;25.77;9.40;;;5.70;99.90;;;;;;20674532;28;20048;-44
2021/11/16 11:57:33;;;;;;;23.95;6.55;;;5.70;99.90;;;;;;20689790;28;20116;-44
2021/11/16 12:07:34;;;;;;;23.77;7.50;;;5.70;99.90;;;;;;20710662;28;20076;-44
2021/11/16 12:17:47;;;;;;;22.75;6.07;;;5.70;99.90;;;;;;20719170;28;20050;-44
2021/11/16 12:27:48;;;;;;;25.05;6.00;;;5.80;99.90;;;;;;20723106;28;20042;-44
2021/11/16 12:38:15;;;;;;;19.75;4.88;;;5.70;99.90;;;;;;20747405;28;20494;-44
2021/11/16 12:48:18;;;;;;;;;;;5.80;99.90;;;;;;20745168;28;20041;-44
2021/11/16 12:58:26;;;;;;;17.02;4.93;;;5.80;99.90;;;;;;20749214;28;19979;-44
2021/11/16 13:08:28;;;;;;;21.47;5.60;;;5.70;99.90;;;;;;20743677;28;20481;-44
2021/11/16 13:18:39;;;;;;;17.38;6.03;;;5.70;99.90;;;;;;20740753;28;20049;-44
2021/11/16 13:39:05;;;;;;;13.50;4.53;;;5.80;99.90;;;;;;20732778;28;20099;-44
2021/11/16 13:49:07;;;;;;;19.45;5.13;;;5.80;99.90;;;;;;20734757;28;20042;-44
2021/11/16 13:59:20;;;;;;;23.58;5.57;;;5.80;99.90;;;;;;20732715;28;20187;-44
2021/11/16 14:09:24;;;;;;;18.50;5.00;;;5.90;99.90;;;;;;20721299;28;20050;-44
2021/11/16 14:19:26;;;;;;;11.40;4.97;;;5.90;99.90;;;;;;20715432;28;20521;-44
2021/11/16 14:29:27;;;;;;;15.40;3.58;;;5.90;99.90;;;;;;20720768;28;20037;-44
2021/11/16 14:39:36;;;;;;;20.80;6.53;;;5.90;99.90;;;;;;20716983;28;20042;-44
2021/11/16 14:50:02;;;;;;;24.00;4.55;;;6.00;99.90;;;;;;20718739;28;20117;-44
2021/11/16 15:00:16;;;;;;;19.77;5.85;;;6.00;99.90;;;;;;20718720;28;20042;-44
2021/11/16 15:10:23;;;;;;;9.68;3.67;;;6.00;99.90;;;;;;20712308;28;20041;-44
2021/11/16 15:21:00;;;;;;;11.50;3.40;;;5.90;99.90;;;;;;20713376;28;20119;-44
2021/11/16 15:31:08;;;;;;;11.00;3.83;;;5.90;99.90;;;;;;20715934;28;20049;-44
2021/11/16 15:41:26;;;;;;;14.95;4.65;;;5.90;99.90;;;;;;20712582;28;20048;-44
2021/11/16 16:01:36;;;;;;;16.02;4.72;;;5.90;99.90;;;;;;20718153;28;20042;-44
2021/11/16 16:11:40;;;;;;;15.00;5.15;;;6.00;99.90;;;;;;20710744;28;20549;-44
2021/11/16 16:21:42;;;;;;;16.10;4.75;;;6.00;99.90;;;;;;20712988;28;20678;-44
2021/11/16 16:31:45;;;;;;;15.68;5.72;;;5.80;99.90;;;;;;20708856;28;20040;-44
2021/11/16 16:41:48;;;;;;;16.25;4.97;;;5.90;99.90;;;;;;20712416;28;20041;-44
2021/11/16 16:51:49;;;;;;;24.05;6.05;;;5.90;99.90;;;;;;20713362;28;20064;-44
2021/11/16 17:01:52;;;;;;;20.38;6.28;;;5.90;99.90;;;;;;20709748;28;20104;-44
2021/11/16 17:11:53;;;;;;;19.55;5.65;;;5.80;99.90;;;;;;20699328;28;20638;-44
2021/11/16 17:21:54;;;;;;;21.75;5.32;;;5.80;99.90;;;;;;20680171;28;20103;-44
2021/11/16 17:31:55;;;;;;;16.00;5.33;;;5.80;99.90;;;;;;20690091;28;20203;-44
2021/11/16 17:41:56;;;;;;;22.35;6.13;;;5.80;99.90;;;;;;20693261;28;20317;-44
2021/11/16 17:51:58;;;;;;;17.65;5.10;;;5.80;99.90;;;;;;20700437;28;20076;-44
2021/11/16 18:01:59;;;;;;;23.10;5.57;;;5.80;99.90;;;;;;20702408;28;20037;-44
2021/11/16 18:12:00;;;;;;;22.48;5.72;;;5.80;99.90;;;;;;20690562;28;20032;-44
2021/11/16 18:22:00;;;;;;;22.63;6.30;;;5.70;99.90;;;;;;20679164;28;21805;-44
2021/11/16 18:32:03;;;;;;;15.43;4.80;;;5.80;99.90;;;;;;20672823;28;20835;-44
2021/11/16 18:52:34;;;;;;;24.98;5.32;;;5.80;99.90;;;;;;20671039;28;20053;-44
2021/11/16 19:02:35;;;;;;;19.48;5.65;;;5.80;99.90;;;;;;20697375;28;20602;-45
2021/11/16 19:12:36;;;;;;;15.55;5.57;;;5.90;99.90;;;;;;20712283;28;20053;-44
2021/11/16 19:22:37;;;;;;;18.73;5.43;;;5.90;99.90;;;;;;20719464;28;20034;-45
2021/11/16 19:32:39;;;;;;;17.98;6.18;;;5.90;99.90;;;;;;20713479;28;20638;-45
2021/11/16 19:42:41;;;;;;;24.42;6.13;;;5.90;99.90;;;;;;20695890;28;20274;-44
2021/11/16 19:52:42;;;;;;;17.13;5.90;;;5.90;99.90;;;;;;20710923;28;20447;-44
2021/11/16 20:02:44;;;;;;;10.70;5.05;;;5.90;99.90;;;;;;20709063;28;20496;-44
2021/11/16 20:12:46;;;;;;;19.70;6.38;;;5.90;99.90;;;;;;20701244;28;20094;-44
2021/11/16 20:22:47;;;;;;;18.23;6.13;;;6.00;99.90;;;;;;20689852;28;20049;-45
2021/11/16 20:33:02;;;;;;;20.35;6.60;;;5.90;99.90;;;;;;20697786;28;20037;-44
2021/11/16 21:03:26;;;;;;;17.88;5.28;;;6.10;99.90;;;;;;20720242;28;20456;-45
2021/11/16 21:13:28;;;;;;;20.95;5.45;;;6.10;99.90;;;;;;20719940;28;20045;-45
2021/11/16 21:23:29;;;;;;;14.05;4.68;;;6.10;99.90;;;;;;20714659;28;20445;-45
2021/11/16 21:33:30;;;;;;;23.10;5.82;;;6.10;99.90;;;;;;20726296;28;20114;-45
2021/11/16 21:43:31;;;;;;;17.10;6.53;;;6.20;99.90;;;;;;20719033;28;20038;-45
2021/11/16 21:53:33;;;;;;;21.17;6.45;;;6.20;99.90;;;;;;20710313;28;20041;-44
2021/11/16 22:03:35;;;;;;;18.95;5.50;;;6.20;99.90;;;;;;20714625;28;20490;-45
2021/11/16 22:13:38;;;;;;;18.42;6.40;;;6.20;99.90;;;;;;20734578;28;20080;-45
2021/11/16 22:23:39;;;;;;;21.65;6.32;;;6.30;99.90;;;;;;20723364;28;21012;-45
2021/11/16 22:33:50;;;;;;;23.25;6.75;;;6.30;99.90;;;;;;20719200;28;20401;-44
2021/11/16 22:43:50;;;;;;;23.83;8.20;;;6.30;99.90;;;;;;20721079;28;20057;-45
2021/11/16 22:53:51;;;;;;;26.33;6.93;;;6.40;99.90;;;;;;20712298;28;20371;-45
